sensor_id;sensor_type;location;lat;lon;timestamp;temperature;humidity
6110;DHT22;3085;49.444;11.054;2023-12-14T00:00:26;7.70;99.90
6110;DHT22;3085;49.444;11.054;2023-12-14T00:02:52;7.70;99.90
6110;DHT22;3085;49.444;11.054;2023-12-14T00:05:19;7.70;99.90
6110;DHT22;3085;49.444;11.054;2023-12-14T00:07:46;7.60;99.90
6110;DHT22;3085;49.444;11.054;2023-12-14T00:10:14;7.70;99.90
6110;DHT22;3085;49.444;11.054;2023-12-14T00:12:43;7.60;99.90
6110;DHT22;3085;49.444;11.054;2023-12-14T00:15:10;7.70;99.90
6110;DHT22;3085;49.444;11.054;2023-12-14T00:17:36;7.50;99.90
6110;DHT22;3085;49.444;11.054;2023-12-14T00:20:04;7.60;99.90
6110;DHT22;3085;49.444;11.054;2023-12-14T00:22:31;7.60;99.90
6110;DHT22;3085;49.444;11.054;2023-12-14T00:24:57;7.70;99.90
6110;DHT22;3085;49.444;11.054;2023-12-14T00:27:25;7.70;99.90
6110;DHT22;3085;49.444;11.054;2023-12-14T00:29:52;7.80;99.90
6110;DHT22;3085;49.444;11.054;2023-12-14T00:32:18;7.60;99.90
6110;DHT22;3085;49.444;11.054;2023-12-14T00:34:45;7.60;99.90
6110;DHT22;3085;49.444;11.054;2023-12-14T00:37:12;7.60;99.90
6110;DHT22;3085;49.444;11.054;2023-12-14T00:39:38;7.60;99.90
6110;DHT22;3085;49.444;11.054;2023-12-14T00:42:05;7.70;99.90
6110;DHT22;3085;49.444;11.054;2023-12-14T00:44:33;7.70;99.90
6110;DHT22;3085;49.444;11.054;2023-12-14T00:47:00;7.70;99.90
6110;DHT22;3085;49.444;11.054;2023-12-14T00:49:28;7.70;99.90
6110;DHT22;3085;49.444;11.054;2023-12-14T00:51:54;7.70;99.90
6110;DHT22;3085;49.444;11.054;2023-12-14T00:54:21;7.60;99.90
6110;DHT22;3085;49.444;11.054;2023-12-14T00:56:48;7.80;99.90
6110;DHT22;3085;49.444;11.054;2023-12-14T00:59:14;7.60;99.90
6110;DHT22;3085;49.444;11.054;2023-12-14T01:01:42;7.70;99.90
6110;DHT22;3085;49.444;11.054;2023-12-14T01:04:09;7.60;99.90
6110;DHT22;3085;49.444;11.054;2023-12-14T01:06:36;7.60;99.90
6110;DHT22;3085;49.444;11.054;2023-12-14T01:09:02;7.50;99.90
6110;DHT22;3085;49.444;11.054;2023-12-14T01:11:29;7.50;99.90
6110;DHT22;3085;49.444;11.054;2023-12-14T01:13:56;7.50;99.90
6110;DHT22;3085;49.444;11.054;2023-12-14T01:16:25;7.40;99.90
6110;DHT22;3085;49.444;11.054;2023-12-14T01:18:54;7.50;99.90
6110;DHT22;3085;49.444;11.054;2023-12-14T01:21:20;7.50;99.90
6110;DHT22;3085;49.444;11.054;2023-12-14T01:23:47;7.60;99.90
6110;DHT22;3085;49.444;11.054;2023-12-14T01:26:14;7.50;99.90
6110;DHT22;3085;49.444;11.054;2023-12-14T01:28:41;7.50;99.90
6110;DHT22;3085;49.444;11.054;2023-12-14T01:31:11;7.50;99.90
6110;DHT22;3085;49.444;11.054;2023-12-14T01:33:38;7.50;99.90
6110;DHT22;3085;49.444;11.054;2023-12-14T01:36:06;7.60;99.90
6110;DHT22;3085;49.444;11.054;2023-12-14T01:38:33;7.60;99.90
6110;DHT22;3085;49.444;11.054;2023-12-14T01:41:00;7.60;99.90
6110;DHT22;3085;49.444;11.054;2023-12-14T01:43:27;7.60;99.90
6110;DHT22;3085;49.444;11.054;2023-12-14T01:45:54;7.60;99.90
6110;DHT22;3085;49.444;11.054;2023-12-14T01:48:21;7.50;99.90
6110;DHT22;3085;49.444;11.054;2023-12-14T01:50:48;7.50;99.90
6110;DHT22;3085;49.444;11.054;2023-12-14T01:53:16;7.40;99.90
6110;DHT22;3085;49.444;11.054;2023-12-14T01:55:43;7.40;99.90
6110;DHT22;3085;49.444;11.054;2023-12-14T01:58:09;7.40;99.90
6110;DHT22;3085;49.444;11.054;2023-12-14T02:00:40;7.40;99.90
6110;DHT22;3085;49.444;11.054;2023-12-14T02:03:07;7.50;99.90
6110;DHT22;3085;49.444;11.054;2023-12-14T02:05:34;7.40;99.90
6110;DHT22;3085;49.444;11.054;2023-12-14T02:08:01;7.50;99.90
6110;DHT22;3085;49.444;11.054;2023-12-14T02:10:29;7.50;99.90
6110;DHT22;3085;49.444;11.054;2023-12-14T02:12:56;7.40;99.90
6110;DHT22;3085;49.444;11.054;2023-12-14T02:15:22;7.40;99.90
6110;DHT22;3085;49.444;11.054;2023-12-14T02:17:49;7.50;99.90
6110;DHT22;3085;49.444;11.054;2023-12-14T02:20:16;7.30;99.90
6110;DHT22;3085;49.444;11.054;2023-12-14T02:22:50;7.30;99.90
6110;DHT22;3085;49.444;11.054;2023-12-14T02:25:17;7.30;99.90
6110;DHT22;3085;49.444;11.054;2023-12-14T02:27:48;7.30;99.90
6110;DHT22;3085;49.444;11.054;2023-12-14T02:30:16;7.30;99.90
6110;DHT22;3085;49.444;11.054;2023-12-14T02:32:42;7.20;99.90
6110;DHT22;3085;49.444;11.054;2023-12-14T02:35:10;7.30;99.90
6110;DHT22;3085;49.444;11.054;2023-12-14T02:37:37;7.40;99.90
6110;DHT22;3085;49.444;11.054;2023-12-14T02:40:10;7.30;99.90
6110;DHT22;3085;49.444;11.054;2023-12-14T02:42:37;7.30;99.90
6110;DHT22;3085;49.444;11.054;2023-12-14T02:45:05;7.30;99.90
6110;DHT22;3085;49.444;11.054;2023-12-14T02:47:35;7.30;99.90
6110;DHT22;3085;49.444;11.054;2023-12-14T02:50:02;7.30;99.90
6110;DHT22;3085;49.444;11.054;2023-12-14T02:52:28;7.40;99.90
6110;DHT22;3085;49.444;11.054;2023-12-14T02:54:55;7.30;99.90
6110;DHT22;3085;49.444;11.054;2023-12-14T02:57:23;7.30;99.90
6110;DHT22;3085;49.444;11.054;2023-12-14T02:59:50;7.20;99.90
6110;DHT22;3085;49.444;11.054;2023-12-14T03:02:16;7.30;99.90
6110;DHT22;3085;49.444;11.054;2023-12-14T03:04:43;7.40;99.90
6110;DHT22;3085;49.444;11.054;2023-12-14T03:07:10;7.30;99.90
6110;DHT22;3085;49.444;11.054;2023-12-14T03:09:39;7.30;99.90
6110;DHT22;3085;49.444;11.054;2023-12-14T03:12:06;7.30;99.90
6110;DHT22;3085;49.444;11.054;2023-12-14T03:14:34;7.30;99.90
6110;DHT22;3085;49.444;11.054;2023-12-14T03:17:01;7.30;99.90
6110;DHT22;3085;49.444;11.054;2023-12-14T03:19:28;7.40;99.90
6110;DHT22;3085;49.444;11.054;2023-12-14T03:21:55;7.40;99.90
6110;DHT22;3085;49.444;11.054;2023-12-14T03:24:21;7.20;99.90
6110;DHT22;3085;49.444;11.054;2023-12-14T03:26:48;7.30;99.90
6110;DHT22;3085;49.444;11.054;2023-12-14T03:29:15;7.20;99.90
6110;DHT22;3085;49.444;11.054;2023-12-14T03:31:43;7.10;99.90
6110;DHT22;3085;49.444;11.054;2023-12-14T03:34:10;7.10;99.90
6110;DHT22;3085;49.444;11.054;2023-12-14T03:36:36;7.10;99.90
6110;DHT22;3085;49.444;11.054;2023-12-14T03:39:03;7.10;99.90
6110;DHT22;3085;49.444;11.054;2023-12-14T03:41:30;6.90;99.90
6110;DHT22;3085;49.444;11.054;2023-12-14T03:43:56;6.80;99.90
6110;DHT22;3085;49.444;11.054;2023-12-14T03:46:23;6.70;99.90
6110;DHT22;3085;49.444;11.054;2023-12-14T03:48:51;6.80;99.90
6110;DHT22;3085;49.444;11.054;2023-12-14T03:51:19;6.80;99.90
6110;DHT22;3085;49.444;11.054;2023-12-14T03:53:46;6.80;99.90
6110;DHT22;3085;49.444;11.054;2023-12-14T03:56:13;6.70;99.90
6110;DHT22;3085;49.444;11.054;2023-12-14T03:58:39;6.70;99.90
6110;DHT22;3085;49.444;11.054;2023-12-14T04:01:06;6.90;99.90
6110;DHT22;3085;49.444;11.054;2023-12-14T04:03:33;7.00;99.90
6110;DHT22;3085;49.444;11.054;2023-12-14T04:06:01;7.00;99.90
6110;DHT22;3085;49.444;11.054;2023-12-14T04:08:27;7.00;99.90
6110;DHT22;3085;49.444;11.054;2023-12-14T04:10:54;7.00;99.90
6110;DHT22;3085;49.444;11.054;2023-12-14T04:13:21;6.90;99.90
6110;DHT22;3085;49.444;11.054;2023-12-14T04:15:46;7.00;99.90
6110;DHT22;3085;49.444;11.054;2023-12-14T04:18:13;6.90;99.90
6110;DHT22;3085;49.444;11.054;2023-12-14T04:20:40;7.00;99.90
6110;DHT22;3085;49.444;11.054;2023-12-14T04:23:07;6.90;99.90
6110;DHT22;3085;49.444;11.054;2023-12-14T04:25:34;6.90;99.90
6110;DHT22;3085;49.444;11.054;2023-12-14T04:28:01;7.00;99.90
6110;DHT22;3085;49.444;11.054;2023-12-14T04:30:27;7.10;99.90
6110;DHT22;3085;49.444;11.054;2023-12-14T04:32:54;7.10;99.90
6110;DHT22;3085;49.444;11.054;2023-12-14T04:35:21;7.10;99.90
6110;DHT22;3085;49.444;11.054;2023-12-14T04:37:48;7.10;99.90
6110;DHT22;3085;49.444;11.054;2023-12-14T04:40:16;7.10;99.90
6110;DHT22;3085;49.444;11.054;2023-12-14T04:42:43;7.10;99.90
6110;DHT22;3085;49.444;11.054;2023-12-14T04:45:10;7.20;99.90
6110;DHT22;3085;49.444;11.054;2023-12-14T04:47:38;7.10;99.90
6110;DHT22;3085;49.444;11.054;2023-12-14T04:50:05;7.20;99.90
6110;DHT22;3085;49.444;11.054;2023-12-14T04:52:32;7.10;99.90
6110;DHT22;3085;49.444;11.054;2023-12-14T04:54:59;7.10;99.90
6110;DHT22;3085;49.444;11.054;2023-12-14T04:57:30;7.20;99.90
6110;DHT22;3085;49.444;11.054;2023-12-14T04:59:56;7.20;99.90
6110;DHT22;3085;49.444;11.054;2023-12-14T05:02:23;7.10;99.90
6110;DHT22;3085;49.444;11.054;2023-12-14T05:04:50;7.10;99.90
6110;DHT22;3085;49.444;11.054;2023-12-14T05:07:17;7.10;99.90
6110;DHT22;3085;49.444;11.054;2023-12-14T05:09:43;6.90;99.90
6110;DHT22;3085;49.444;11.054;2023-12-14T05:12:10;6.90;99.90
6110;DHT22;3085;49.444;11.054;2023-12-14T05:14:38;6.90;99.90
6110;DHT22;3085;49.444;11.054;2023-12-14T05:17:05;6.90;99.90
6110;DHT22;3085;49.444;11.054;2023-12-14T05:19:32;7.00;99.90
6110;DHT22;3085;49.444;11.054;2023-12-14T05:21:59;7.10;99.90
6110;DHT22;3085;49.444;11.054;2023-12-14T05:24:25;7.10;99.90
6110;DHT22;3085;49.444;11.054;2023-12-14T05:26:52;7.10;99.90
6110;DHT22;3085;49.444;11.054;2023-12-14T05:29:19;7.10;99.90
6110;DHT22;3085;49.444;11.054;2023-12-14T05:31:48;7.00;99.90
6110;DHT22;3085;49.444;11.054;2023-12-14T05:34:15;7.00;99.90
6110;DHT22;3085;49.444;11.054;2023-12-14T05:36:42;6.90;99.90
6110;DHT22;3085;49.444;11.054;2023-12-14T05:39:09;7.10;99.90
6110;DHT22;3085;49.444;11.054;2023-12-14T05:41:40;7.10;99.90
6110;DHT22;3085;49.444;11.054;2023-12-14T05:44:06;7.00;99.90
6110;DHT22;3085;49.444;11.054;2023-12-14T05:46:35;6.90;99.90
6110;DHT22;3085;49.444;11.054;2023-12-14T05:49:06;7.00;99.90
6110;DHT22;3085;49.444;11.054;2023-12-14T05:51:35;7.00;99.90
6110;DHT22;3085;49.444;11.054;2023-12-14T05:54:06;7.10;99.90
6110;DHT22;3085;49.444;11.054;2023-12-14T05:56:35;7.10;99.90
6110;DHT22;3085;49.444;11.054;2023-12-14T05:59:03;7.10;99.90
6110;DHT22;3085;49.444;11.054;2023-12-14T06:01:30;7.00;99.90
6110;DHT22;3085;49.444;11.054;2023-12-14T06:03:58;6.80;99.90
6110;DHT22;3085;49.444;11.054;2023-12-14T06:06:29;6.90;99.90
6110;DHT22;3085;49.444;11.054;2023-12-14T06:08:59;7.00;99.90
6110;DHT22;3085;49.444;11.054;2023-12-14T06:11:28;6.90;99.90
6110;DHT22;3085;49.444;11.054;2023-12-14T06:13:54;7.00;99.90
6110;DHT22;3085;49.444;11.054;2023-12-14T06:16:21;7.00;99.90
6110;DHT22;3085;49.444;11.054;2023-12-14T06:18:47;7.00;99.90
6110;DHT22;3085;49.444;11.054;2023-12-14T06:21:14;7.00;99.90
6110;DHT22;3085;49.444;11.054;2023-12-14T06:23:42;7.10;99.90
6110;DHT22;3085;49.444;11.054;2023-12-14T06:26:09;7.10;99.90
6110;DHT22;3085;49.444;11.054;2023-12-14T06:28:35;7.00;99.90
6110;DHT22;3085;49.444;11.054;2023-12-14T06:31:02;6.90;99.90
6110;DHT22;3085;49.444;11.054;2023-12-14T06:33:29;6.90;99.90
6110;DHT22;3085;49.444;11.054;2023-12-14T06:35:57;7.00;99.90
6110;DHT22;3085;49.444;11.054;2023-12-14T06:38:24;7.00;99.90
6110;DHT22;3085;49.444;11.054;2023-12-14T06:40:52;6.90;99.90
6110;DHT22;3085;49.444;11.054;2023-12-14T06:43:19;7.00;99.90
6110;DHT22;3085;49.444;11.054;2023-12-14T06:45:45;6.90;99.90
6110;DHT22;3085;49.444;11.054;2023-12-14T06:48:12;7.00;99.90
6110;DHT22;3085;49.444;11.054;2023-12-14T06:50:38;7.10;99.90
6110;DHT22;3085;49.444;11.054;2023-12-14T06:53:05;7.00;99.90
6110;DHT22;3085;49.444;11.054;2023-12-14T06:55:32;7.10;99.90
6110;DHT22;3085;49.444;11.054;2023-12-14T06:58:00;7.10;99.90
6110;DHT22;3085;49.444;11.054;2023-12-14T07:00:26;6.90;99.90
6110;DHT22;3085;49.444;11.054;2023-12-14T07:02:54;6.90;99.90
6110;DHT22;3085;49.444;11.054;2023-12-14T07:05:21;7.00;99.90
6110;DHT22;3085;49.444;11.054;2023-12-14T07:07:48;7.00;99.90
6110;DHT22;3085;49.444;11.054;2023-12-14T07:10:14;7.00;99.90
6110;DHT22;3085;49.444;11.054;2023-12-14T07:12:43;7.10;99.90
6110;DHT22;3085;49.444;11.054;2023-12-14T07:15:11;7.00;99.90
6110;DHT22;3085;49.444;11.054;2023-12-14T07:17:38;7.10;99.90
6110;DHT22;3085;49.444;11.054;2023-12-14T07:20:06;7.10;99.90
6110;DHT22;3085;49.444;11.054;2023-12-14T07:22:33;7.10;99.90
6110;DHT22;3085;49.444;11.054;2023-12-14T07:25:00;7.00;99.90
6110;DHT22;3085;49.444;11.054;2023-12-14T07:27:26;6.90;99.90
6110;DHT22;3085;49.444;11.054;2023-12-14T07:29:53;6.90;99.90
6110;DHT22;3085;49.444;11.054;2023-12-14T07:32:22;6.90;99.90
6110;DHT22;3085;49.444;11.054;2023-12-14T07:34:48;7.00;99.90
6110;DHT22;3085;49.444;11.054;2023-12-14T07:37:15;6.90;99.90
6110;DHT22;3085;49.444;11.054;2023-12-14T07:39:42;7.00;99.90
6110;DHT22;3085;49.444;11.054;2023-12-14T07:42:08;7.00;99.90
6110;DHT22;3085;49.444;11.054;2023-12-14T07:44:35;7.00;99.90
6110;DHT22;3085;49.444;11.054;2023-12-14T07:47:03;6.90;99.90
6110;DHT22;3085;49.444;11.054;2023-12-14T07:49:31;7.00;99.90
6110;DHT22;3085;49.444;11.054;2023-12-14T07:51:58;6.90;99.90
6110;DHT22;3085;49.444;11.054;2023-12-14T07:54:24;6.80;99.90
6110;DHT22;3085;49.444;11.054;2023-12-14T07:56:52;6.70;99.90
6110;DHT22;3085;49.444;11.054;2023-12-14T07:59:18;6.80;99.90
6110;DHT22;3085;49.444;11.054;2023-12-14T08:01:46;6.80;99.90
6110;DHT22;3085;49.444;11.054;2023-12-14T08:04:12;6.70;99.90
6110;DHT22;3085;49.444;11.054;2023-12-14T08:06:40;5.70;99.90
6110;DHT22;3085;49.444;11.054;2023-12-14T08:09:07;6.70;99.90
6110;DHT22;3085;49.444;11.054;2023-12-14T08:11:34;6.70;99.90
6110;DHT22;3085;49.444;11.054;2023-12-14T08:14:01;6.70;99.90
6110;DHT22;3085;49.444;11.054;2023-12-14T08:16:28;6.80;99.90
6110;DHT22;3085;49.444;11.054;2023-12-14T08:18:55;6.90;99.90
6110;DHT22;3085;49.444;11.054;2023-12-14T08:21:22;6.90;99.90
6110;DHT22;3085;49.444;11.054;2023-12-14T08:23:50;6.80;99.90
6110;DHT22;3085;49.444;11.054;2023-12-14T08:26:16;6.80;99.90
6110;DHT22;3085;49.444;11.054;2023-12-14T08:28:43;6.90;99.90
6110;DHT22;3085;49.444;11.054;2023-12-14T08:31:10;6.80;99.90
6110;DHT22;3085;49.444;11.054;2023-12-14T08:33:37;6.70;99.90
6110;DHT22;3085;49.444;11.054;2023-12-14T08:36:04;6.80;99.90
6110;DHT22;3085;49.444;11.054;2023-12-14T08:38:31;6.80;99.90
6110;DHT22;3085;49.444;11.054;2023-12-14T08:40:59;6.80;99.90
6110;DHT22;3085;49.444;11.054;2023-12-14T08:43:26;6.70;99.90
6110;DHT22;3085;49.444;11.054;2023-12-14T08:45:53;6.90;99.90
6110;DHT22;3085;49.444;11.054;2023-12-14T08:48:20;6.70;99.90
6110;DHT22;3085;49.444;11.054;2023-12-14T08:50:46;6.70;99.90
6110;DHT22;3085;49.444;11.054;2023-12-14T08:53:13;6.70;99.90
6110;DHT22;3085;49.444;11.054;2023-12-14T08:55:40;6.80;99.90
6110;DHT22;3085;49.444;11.054;2023-12-14T08:58:08;6.80;99.90
6110;DHT22;3085;49.444;11.054;2023-12-14T09:00:34;6.90;99.90
6110;DHT22;3085;49.444;11.054;2023-12-14T09:03:01;6.90;99.90
6110;DHT22;3085;49.444;11.054;2023-12-14T09:05:28;6.90;99.90
6110;DHT22;3085;49.444;11.054;2023-12-14T09:07:54;6.80;99.90
6110;DHT22;3085;49.444;11.054;2023-12-14T09:10:21;6.90;99.90
6110;DHT22;3085;49.444;11.054;2023-12-14T09:12:48;6.90;99.90
6110;DHT22;3085;49.444;11.054;2023-12-14T09:15:16;6.80;99.90
6110;DHT22;3085;49.444;11.054;2023-12-14T09:17:43;6.90;99.90
6110;DHT22;3085;49.444;11.054;2023-12-14T09:20:10;6.90;99.90
6110;DHT22;3085;49.444;11.054;2023-12-14T09:22:37;6.90;99.90
6110;DHT22;3085;49.444;11.054;2023-12-14T09:25:06;6.80;99.90
6110;DHT22;3085;49.444;11.054;2023-12-14T09:27:34;6.80;99.90
6110;DHT22;3085;49.444;11.054;2023-12-14T09:30:01;6.80;99.90
6110;DHT22;3085;49.444;11.054;2023-12-14T09:32:29;6.70;99.90
6110;DHT22;3085;49.444;11.054;2023-12-14T09:34:56;6.80;99.90
6110;DHT22;3085;49.444;11.054;2023-12-14T09:37:22;6.80;99.90
6110;DHT22;3085;49.444;11.054;2023-12-14T09:39:49;6.90;99.90
6110;DHT22;3085;49.444;11.054;2023-12-14T09:42:19;6.90;99.90
6110;DHT22;3085;49.444;11.054;2023-12-14T09:44:47;6.90;99.90
6110;DHT22;3085;49.444;11.054;2023-12-14T09:47:14;7.00;99.90
6110;DHT22;3085;49.444;11.054;2023-12-14T09:49:42;7.00;99.90
6110;DHT22;3085;49.444;11.054;2023-12-14T09:52:09;7.10;99.90
6110;DHT22;3085;49.444;11.054;2023-12-14T09:54:36;7.20;99.90
6110;DHT22;3085;49.444;11.054;2023-12-14T09:57:03;7.20;99.90
6110;DHT22;3085;49.444;11.054;2023-12-14T09:59:30;7.30;99.90
6110;DHT22;3085;49.444;11.054;2023-12-14T10:02:09;7.20;99.90
6110;DHT22;3085;49.444;11.054;2023-12-14T10:04:36;7.30;99.90
6110;DHT22;3085;49.444;11.054;2023-12-14T10:07:04;7.30;99.90
6110;DHT22;3085;49.444;11.054;2023-12-14T10:09:32;7.40;99.90
6110;DHT22;3085;49.444;11.054;2023-12-14T10:12:03;7.40;99.90
6110;DHT22;3085;49.444;11.054;2023-12-14T10:14:30;7.50;99.90
6110;DHT22;3085;49.444;11.054;2023-12-14T10:16:58;7.50;99.90
6110;DHT22;3085;49.444;11.054;2023-12-14T10:19:24;7.50;99.90
6110;DHT22;3085;49.444;11.054;2023-12-14T10:21:52;7.40;99.90
6110;DHT22;3085;49.444;11.054;2023-12-14T10:24:20;7.50;99.90
6110;DHT22;3085;49.444;11.054;2023-12-14T10:26:47;7.50;99.90
6110;DHT22;3085;49.444;11.054;2023-12-14T10:29:13;7.50;99.90
6110;DHT22;3085;49.444;11.054;2023-12-14T10:31:41;7.50;99.90
6110;DHT22;3085;49.444;11.054;2023-12-14T10:34:08;7.60;99.90
6110;DHT22;3085;49.444;11.054;2023-12-14T10:36:37;7.60;99.90
6110;DHT22;3085;49.444;11.054;2023-12-14T10:39:04;7.60;99.90
6110;DHT22;3085;49.444;11.054;2023-12-14T10:41:36;7.70;99.90
6110;DHT22;3085;49.444;11.054;2023-12-14T10:44:04;7.70;99.90
6110;DHT22;3085;49.444;11.054;2023-12-14T10:46:31;7.70;99.90
6110;DHT22;3085;49.444;11.054;2023-12-14T10:48:58;7.80;99.90
6110;DHT22;3085;49.444;11.054;2023-12-14T10:51:27;7.80;99.90
6110;DHT22;3085;49.444;11.054;2023-12-14T10:53:54;7.70;99.90
6110;DHT22;3085;49.444;11.054;2023-12-14T10:56:22;7.70;99.90
6110;DHT22;3085;49.444;11.054;2023-12-14T10:58:53;7.70;99.90
6110;DHT22;3085;49.444;11.054;2023-12-14T11:01:22;7.70;99.90
6110;DHT22;3085;49.444;11.054;2023-12-14T11:03:50;7.70;99.90
6110;DHT22;3085;49.444;11.054;2023-12-14T11:06:27;7.70;99.90
6110;DHT22;3085;49.444;11.054;2023-12-14T11:08:59;7.70;99.90
6110;DHT22;3085;49.444;11.054;2023-12-14T11:11:29;7.70;99.90
6110;DHT22;3085;49.444;11.054;2023-12-14T11:13:57;7.80;99.90
6110;DHT22;3085;49.444;11.054;2023-12-14T11:16:26;7.80;99.90
6110;DHT22;3085;49.444;11.054;2023-12-14T11:19:27;7.80;99.90
6110;DHT22;3085;49.444;11.054;2023-12-14T11:22:11;7.80;99.90
6110;DHT22;3085;49.444;11.054;2023-12-14T11:24:51;7.90;99.90
6110;DHT22;3085;49.444;11.054;2023-12-14T11:27:20;7.90;99.90
6110;DHT22;3085;49.444;11.054;2023-12-14T11:29:49;7.90;99.90
6110;DHT22;3085;49.444;11.054;2023-12-14T11:32:16;7.90;99.90
6110;DHT22;3085;49.444;11.054;2023-12-14T11:34:45;7.90;99.90
6110;DHT22;3085;49.444;11.054;2023-12-14T11:37:12;7.90;99.90
6110;DHT22;3085;49.444;11.054;2023-12-14T11:39:39;8.00;99.90
6110;DHT22;3085;49.444;11.054;2023-12-14T11:42:06;7.90;99.90
6110;DHT22;3085;49.444;11.054;2023-12-14T11:44:34;8.00;99.90
6110;DHT22;3085;49.444;11.054;2023-12-14T11:47:03;8.00;99.90
6110;DHT22;3085;49.444;11.054;2023-12-14T11:49:30;8.00;99.90
6110;DHT22;3085;49.444;11.054;2023-12-14T11:51:57;8.00;99.90
6110;DHT22;3085;49.444;11.054;2023-12-14T11:54:25;7.90;99.90
6110;DHT22;3085;49.444;11.054;2023-12-14T11:56:52;7.90;99.90
6110;DHT22;3085;49.444;11.054;2023-12-14T11:59:19;8.00;99.90
6110;DHT22;3085;49.444;11.054;2023-12-14T12:01:57;8.00;99.90
6110;DHT22;3085;49.444;11.054;2023-12-14T12:04:25;8.10;99.90
6110;DHT22;3085;49.444;11.054;2023-12-14T12:06:59;8.20;99.90
6110;DHT22;3085;49.444;11.054;2023-12-14T12:09:37;8.10;99.90
6110;DHT22;3085;49.444;11.054;2023-12-14T12:12:07;8.00;99.90
6110;DHT22;3085;49.444;11.054;2023-12-14T12:14:35;7.90;99.90
6110;DHT22;3085;49.444;11.054;2023-12-14T12:17:03;8.00;99.90
6110;DHT22;3085;49.444;11.054;2023-12-14T12:19:32;8.00;99.90
6110;DHT22;3085;49.444;11.054;2023-12-14T12:21:59;8.10;99.90
6110;DHT22;3085;49.444;11.054;2023-12-14T12:24:26;8.10;99.90
6110;DHT22;3085;49.444;11.054;2023-12-14T12:26:53;8.10;99.90
6110;DHT22;3085;49.444;11.054;2023-12-14T12:29:19;8.10;99.90
6110;DHT22;3085;49.444;11.054;2023-12-14T12:31:46;8.20;99.90
6110;DHT22;3085;49.444;11.054;2023-12-14T12:34:13;8.10;99.90
6110;DHT22;3085;49.444;11.054;2023-12-14T12:36:41;8.10;99.90
6110;DHT22;3085;49.444;11.054;2023-12-14T12:39:08;8.10;99.90
6110;DHT22;3085;49.444;11.054;2023-12-14T12:41:35;8.10;99.90
6110;DHT22;3085;49.444;11.054;2023-12-14T12:44:03;8.00;99.90
6110;DHT22;3085;49.444;11.054;2023-12-14T12:46:31;8.00;99.90
6110;DHT22;3085;49.444;11.054;2023-12-14T12:49:00;8.00;99.90
6110;DHT22;3085;49.444;11.054;2023-12-14T12:51:26;8.00;99.90
6110;DHT22;3085;49.444;11.054;2023-12-14T12:53:55;8.00;99.90
6110;DHT22;3085;49.444;11.054;2023-12-14T12:56:22;8.00;99.90
6110;DHT22;3085;49.444;11.054;2023-12-14T12:58:49;7.90;99.90
6110;DHT22;3085;49.444;11.054;2023-12-14T13:01:19;7.90;99.90
6110;DHT22;3085;49.444;11.054;2023-12-14T13:03:46;7.90;99.90
6110;DHT22;3085;49.444;11.054;2023-12-14T13:06:13;7.90;99.90
6110;DHT22;3085;49.444;11.054;2023-12-14T13:08:39;7.90;99.90
6110;DHT22;3085;49.444;11.054;2023-12-14T13:11:07;8.60;99.90
6110;DHT22;3085;49.444;11.054;2023-12-14T13:13:34;7.90;99.90
6110;DHT22;3085;49.444;11.054;2023-12-14T13:16:01;7.80;99.90
6110;DHT22;3085;49.444;11.054;2023-12-14T13:18:27;7.80;99.90
6110;DHT22;3085;49.444;11.054;2023-12-14T13:20:54;7.70;99.90
6110;DHT22;3085;49.444;11.054;2023-12-14T13:23:22;7.70;99.90
6110;DHT22;3085;49.444;11.054;2023-12-14T13:25:49;7.80;99.90
6110;DHT22;3085;49.444;11.054;2023-12-14T13:28:17;7.70;99.90
6110;DHT22;3085;49.444;11.054;2023-12-14T13:30:44;7.60;99.90
6110;DHT22;3085;49.444;11.054;2023-12-14T13:33:11;7.60;99.90
6110;DHT22;3085;49.444;11.054;2023-12-14T13:35:38;7.60;99.90
6110;DHT22;3085;49.444;11.054;2023-12-14T13:38:04;7.60;99.90
6110;DHT22;3085;49.444;11.054;2023-12-14T13:40:31;7.60;99.90
6110;DHT22;3085;49.444;11.054;2023-12-14T13:42:58;7.60;99.90
6110;DHT22;3085;49.444;11.054;2023-12-14T13:45:33;7.60;99.90
6110;DHT22;3085;49.444;11.054;2023-12-14T13:47:59;7.60;99.90
6110;DHT22;3085;49.444;11.054;2023-12-14T13:50:27;7.60;99.90
6110;DHT22;3085;49.444;11.054;2023-12-14T13:52:54;7.60;99.90
6110;DHT22;3085;49.444;11.054;2023-12-14T13:55:21;7.50;99.90
6110;DHT22;3085;49.444;11.054;2023-12-14T13:57:50;7.50;99.90
6110;DHT22;3085;49.444;11.054;2023-12-14T14:00:18;7.30;99.90
6110;DHT22;3085;49.444;11.054;2023-12-14T14:02:49;7.20;99.90
6110;DHT22;3085;49.444;11.054;2023-12-14T14:05:16;7.20;99.90
6110;DHT22;3085;49.444;11.054;2023-12-14T14:07:44;7.10;99.90
6110;DHT22;3085;49.444;11.054;2023-12-14T14:10:11;7.10;99.90
6110;DHT22;3085;49.444;11.054;2023-12-14T14:12:38;7.00;99.90
6110;DHT22;3085;49.444;11.054;2023-12-14T14:15:06;7.00;99.90
6110;DHT22;3085;49.444;11.054;2023-12-14T14:17:33;7.00;99.90
6110;DHT22;3085;49.444;11.054;2023-12-14T14:20:01;7.00;99.90
6110;DHT22;3085;49.444;11.054;2023-12-14T14:22:28;7.10;99.90
6110;DHT22;3085;49.444;11.054;2023-12-14T14:24:55;7.00;99.90
6110;DHT22;3085;49.444;11.054;2023-12-14T14:27:22;7.10;99.90
6110;DHT22;3085;49.444;11.054;2023-12-14T14:29:49;7.20;99.90
6110;DHT22;3085;49.444;11.054;2023-12-14T14:32:19;7.20;99.90
6110;DHT22;3085;49.444;11.054;2023-12-14T14:34:46;7.20;99.90
6110;DHT22;3085;49.444;11.054;2023-12-14T14:37:16;7.40;99.90
6110;DHT22;3085;49.444;11.054;2023-12-14T14:39:42;7.20;99.90
6110;DHT22;3085;49.444;11.054;2023-12-14T14:42:09;7.30;99.90
6110;DHT22;3085;49.444;11.054;2023-12-14T14:44:42;7.20;99.90
6110;DHT22;3085;49.444;11.054;2023-12-14T14:47:20;7.30;99.90
6110;DHT22;3085;49.444;11.054;2023-12-14T14:49:49;7.20;99.90
6110;DHT22;3085;49.444;11.054;2023-12-14T14:52:17;7.20;99.90
6110;DHT22;3085;49.444;11.054;2023-12-14T14:54:44;7.20;99.90
6110;DHT22;3085;49.444;11.054;2023-12-14T14:57:11;7.10;99.90
6110;DHT22;3085;49.444;11.054;2023-12-14T14:59:38;7.00;99.90
6110;DHT22;3085;49.444;11.054;2023-12-14T15:02:05;7.10;99.90
6110;DHT22;3085;49.444;11.054;2023-12-14T15:04:32;8.20;99.90
6110;DHT22;3085;49.444;11.054;2023-12-14T15:06:59;7.20;99.90
6110;DHT22;3085;49.444;11.054;2023-12-14T15:09:29;7.20;99.90
6110;DHT22;3085;49.444;11.054;2023-12-14T15:11:56;7.30;99.90
6110;DHT22;3085;49.444;11.054;2023-12-14T15:14:23;7.30;99.90
6110;DHT22;3085;49.444;11.054;2023-12-14T15:16:52;7.30;99.90
6110;DHT22;3085;49.444;11.054;2023-12-14T15:19:21;7.20;99.90
6110;DHT22;3085;49.444;11.054;2023-12-14T15:21:48;7.10;99.90
6110;DHT22;3085;49.444;11.054;2023-12-14T15:24:15;7.20;99.90
6110;DHT22;3085;49.444;11.054;2023-12-14T15:26:43;7.20;99.90
6110;DHT22;3085;49.444;11.054;2023-12-14T15:29:10;7.10;99.90
6110;DHT22;3085;49.444;11.054;2023-12-14T15:31:37;7.00;99.90
6110;DHT22;3085;49.444;11.054;2023-12-14T15:34:04;7.10;99.90
6110;DHT22;3085;49.444;11.054;2023-12-14T15:36:32;7.10;99.90
6110;DHT22;3085;49.444;11.054;2023-12-14T15:38:59;7.00;99.90
6110;DHT22;3085;49.444;11.054;2023-12-14T15:41:26;7.00;99.90
6110;DHT22;3085;49.444;11.054;2023-12-14T15:43:55;7.20;99.90
6110;DHT22;3085;49.444;11.054;2023-12-14T15:46:24;8.60;99.90
6110;DHT22;3085;49.444;11.054;2023-12-14T15:48:51;7.00;99.90
6110;DHT22;3085;49.444;11.054;2023-12-14T15:51:18;7.10;99.90
6110;DHT22;3085;49.444;11.054;2023-12-14T15:53:45;7.00;99.90
6110;DHT22;3085;49.444;11.054;2023-12-14T15:56:12;7.10;99.90
6110;DHT22;3085;49.444;11.054;2023-12-14T15:58:40;7.00;99.90
6110;DHT22;3085;49.444;11.054;2023-12-14T16:01:08;6.90;99.90
6110;DHT22;3085;49.444;11.054;2023-12-14T16:03:36;6.90;99.90